createdAt,value
2019-06-15T00:00:25.855Z,19.80
2019-06-15T00:06:30.412Z,20.10
2019-06-15T00:12:36.614Z,20.10
2019-06-15T00:18:41.283Z,20.00
2019-06-15T00:24:45.852Z,19.80
2019-06-15T00:30:50.419Z,19.70
2019-06-15T00:36:55.036Z,19.60
2019-06-15T00:43:01.265Z,19.60
2019-06-15T00:49:05.897Z,19.50
2019-06-15T00:55:10.595Z,19.50
2019-06-15T01:01:15.231Z,19.40
2019-06-15T01:07:21.427Z,19.30
2019-06-15T01:13:25.988Z,19.30
2019-06-15T01:19:30.607Z,19.30
2019-06-15T01:25:35.359Z,19.30
2019-06-15T01:31:40.049Z,19.30
2019-06-15T01:37:44.597Z,19.20
2019-06-15T01:43:49.181Z,19.20
2019-06-15T01:49:53.730Z,19.20
2019-06-15T01:55:59.869Z,19.20
2019-06-15T02:02:04.498Z,19.20
2019-06-15T02:08:09.115Z,19.20
2019-06-15T02:14:13.671Z,19.20
2019-06-15T02:20:18.786Z,19.10
2019-06-15T02:26:23.369Z,19.10
2019-06-15T02:32:27.955Z,19.20
2019-06-15T02:38:32.665Z,19.20
2019-06-15T02:44:37.218Z,19.20
2019-06-15T02:50:41.831Z,19.40
2019-06-15T02:56:47.896Z,19.50
2019-06-15T03:02:52.524Z,19.50
2019-06-15T03:08:58.178Z,19.30
2019-06-15T03:15:02.858Z,19.10
2019-06-15T03:21:07.447Z,19.10
2019-06-15T03:27:12.568Z,19.20
2019-06-15T03:33:17.274Z,19.20
2019-06-15T03:39:24.913Z,19.30
2019-06-15T03:45:29.460Z,19.50
2019-06-15T03:51:34.078Z,19.70
2019-06-15T03:57:39.162Z,19.90
2019-06-15T04:03:43.799Z,19.90
2019-06-15T04:09:48.490Z,20.00
2019-06-15T04:15:53.097Z,20.00
2019-06-15T04:21:57.736Z,20.00
2019-06-15T04:28:02.355Z,20.00
2019-06-15T04:34:08.534Z,20.20
2019-06-15T04:40:15.505Z,20.30
2019-06-15T04:46:20.237Z,20.60
2019-06-15T04:52:24.785Z,20.80
2019-06-15T04:58:30.976Z,20.80
2019-06-15T05:04:36.064Z,20.80
2019-06-15T05:10:40.652Z,20.70
2019-06-15T05:16:45.204Z,20.70
2019-06-15T05:22:49.758Z,20.70
2019-06-15T05:28:55.955Z,20.70
2019-06-15T05:35:00.524Z,20.60
2019-06-15T05:41:07.321Z,20.60
2019-06-15T05:47:11.930Z,20.40
2019-06-15T05:53:16.502Z,20.30
2019-06-15T05:59:23.948Z,20.50
2019-06-15T06:05:28.511Z,20.60
2019-06-15T06:11:33.081Z,20.80
2019-06-15T06:17:42.278Z,21.10
2019-06-15T06:23:46.377Z,21.30
2019-06-15T06:29:53.929Z,21.60
2019-06-15T06:35:58.460Z,21.80
2019-06-15T06:42:04.728Z,21.70
2019-06-15T06:48:09.287Z,21.90
2019-06-15T06:54:17.645Z,22.20
2019-06-15T07:00:37.110Z,22.70
2019-06-15T07:06:41.646Z,23.10
2019-06-15T07:12:46.201Z,23.50
2019-06-15T07:18:50.756Z,24.00
2019-06-15T07:24:55.320Z,24.40
2019-06-15T07:30:59.882Z,24.90
2019-06-15T07:37:04.521Z,25.30
2019-06-15T07:43:09.065Z,25.60
2019-06-15T07:49:13.805Z,25.90
2019-06-15T07:55:18.405Z,26.30
2019-06-15T08:01:23.023Z,26.70
2019-06-15T08:07:29.432Z,26.40
2019-06-15T08:13:34.084Z,26.30
2019-06-15T08:19:41.780Z,26.60
2019-06-15T08:25:46.469Z,27.00
2019-06-15T08:31:54.897Z,26.80
2019-06-15T08:37:59.498Z,26.90
2019-06-15T08:44:04.183Z,26.90
2019-06-15T08:50:09.415Z,27.30
2019-06-15T08:56:14.128Z,27.40
2019-06-15T09:02:18.746Z,27.80
2019-06-15T09:08:23.420Z,28.20
2019-06-15T09:14:28.003Z,28.20
2019-06-15T09:20:35.732Z,28.10
2019-06-15T09:26:40.323Z,28.20
2019-06-15T09:32:44.881Z,28.30
2019-06-15T09:38:50.311Z,29.00
2019-06-15T09:44:55.700Z,28.10
2019-06-15T09:51:00.473Z,28.30
2019-06-15T09:57:05.227Z,28.50
2019-06-15T10:03:09.868Z,27.90
2019-06-15T10:09:14.442Z,27.90
2019-06-15T10:15:24.063Z,27.50
2019-06-15T10:21:28.888Z,27.00
2019-06-15T10:27:33.445Z,27.20
2019-06-15T10:33:39.761Z,27.20
2019-06-15T10:39:44.487Z,26.50
2019-06-15T10:45:49.195Z,26.20
2019-06-15T10:51:58.245Z,26.30
2019-06-15T10:58:05.975Z,25.90
2019-06-15T11:04:10.533Z,25.60
2019-06-15T11:10:17.938Z,25.60
2019-06-15T11:16:26.086Z,26.10
2019-06-15T11:22:30.691Z,26.30
2019-06-15T11:28:36.344Z,26.50
2019-06-15T11:34:40.963Z,26.30
2019-06-15T11:40:45.517Z,26.40
2019-06-15T11:46:50.218Z,26.20
2019-06-15T11:52:54.758Z,26.90
2019-06-15T11:59:00.638Z,27.10
2019-06-15T12:05:11.496Z,27.40
2019-06-15T12:11:16.103Z,27.70
2019-06-15T12:17:20.790Z,27.80
2019-06-15T12:23:25.398Z,27.80
2019-06-15T12:29:30.095Z,28.20
2019-06-15T12:35:34.790Z,27.90
2019-06-15T12:41:39.337Z,27.90
2019-06-15T12:47:43.895Z,28.10
2019-06-15T12:53:49.686Z,28.00
2019-06-15T12:59:56.136Z,28.00
2019-06-15T13:06:02.322Z,27.80
2019-06-15T13:12:07.016Z,27.70
2019-06-15T13:18:11.554Z,26.90
2019-06-15T13:24:16.372Z,26.40
2019-06-15T13:30:22.554Z,27.70
2019-06-15T13:36:27.160Z,28.50
2019-06-15T13:42:31.777Z,27.00
2019-06-15T13:48:36.317Z,26.10
2019-06-15T13:54:42.649Z,25.50
2019-06-15T14:00:47.318Z,26.00
2019-06-15T14:06:51.939Z,26.90
2019-06-15T14:12:59.675Z,26.30
2019-06-15T14:19:05.832Z,25.30
2019-06-15T14:25:11.042Z,24.90
2019-06-15T14:31:15.665Z,24.70
2019-06-15T14:37:20.358Z,24.90
2019-06-15T14:43:25.394Z,24.90
2019-06-15T14:49:29.948Z,24.60
2019-06-15T14:55:36.624Z,23.90
2019-06-15T15:01:41.042Z,23.50
2019-06-15T15:07:46.977Z,24.00
2019-06-15T15:13:51.734Z,24.50
2019-06-15T15:19:57.412Z,25.10
2019-06-15T15:26:02.255Z,25.80
2019-06-15T15:32:07.990Z,25.70
2019-06-15T15:38:13.252Z,25.70
2019-06-15T15:44:17.822Z,25.40
2019-06-15T15:50:22.391Z,25.50
2019-06-15T15:56:27.314Z,25.10
2019-06-15T16:02:45.569Z,25.40
2019-06-15T16:08:38.193Z,25.80
2019-06-15T16:14:42.742Z,25.90
2019-06-15T16:20:51.553Z,25.90
2019-06-15T16:26:58.963Z,25.70
2019-06-15T16:33:04.228Z,25.40
2019-06-15T16:39:09.261Z,25.80
2019-06-15T16:45:16.129Z,26.40
2019-06-15T16:51:20.923Z,27.00
2019-06-15T16:57:26.643Z,26.90
2019-06-15T17:03:36.502Z,26.80
2019-06-15T17:09:41.052Z,26.70
2019-06-15T17:15:46.920Z,25.90
2019-06-15T17:21:53.265Z,25.00
2019-06-15T17:28:04.178Z,24.10
2019-06-15T17:34:11.815Z,24.10
2019-06-15T17:40:17.948Z,23.90
2019-06-15T17:46:28.915Z,24.20
2019-06-15T17:52:30.595Z,24.60
2019-06-15T17:58:37.040Z,25.00
2019-06-15T18:04:41.608Z,26.10
2019-06-15T18:10:47.503Z,26.20
2019-06-15T18:16:52.791Z,25.90
2019-06-15T18:22:57.513Z,25.20
2019-06-15T18:29:02.057Z,24.90
2019-06-15T18:35:10.891Z,25.30
2019-06-15T18:41:17.052Z,25.00
2019-06-15T18:47:21.968Z,24.50
2019-06-15T18:53:26.997Z,24.20
2019-06-15T18:59:31.581Z,23.00
2019-06-15T19:05:40.997Z,22.10
2019-06-15T19:11:43.219Z,21.60
2019-06-15T19:17:47.776Z,21.20
2019-06-15T19:23:52.371Z,20.90
2019-06-15T19:29:56.944Z,20.60
2019-06-15T19:36:01.501Z,20.40
2019-06-15T19:42:06.127Z,20.20
2019-06-15T19:48:11.332Z,20.10
2019-06-15T19:54:16.082Z,19.80
2019-06-15T20:00:21.127Z,19.40
2019-06-15T20:06:26.134Z,19.10
2019-06-15T20:12:30.811Z,18.80
2019-06-15T20:18:37.443Z,18.60
2019-06-15T20:24:41.707Z,18.30
2019-06-15T20:30:47.775Z,18.10
2019-06-15T20:36:55.309Z,18.00
2019-06-15T20:42:59.869Z,17.80
2019-06-15T20:49:06.576Z,17.70
2019-06-15T20:55:11.226Z,17.60
2019-06-15T21:01:16.446Z,17.40
2019-06-15T21:07:21.177Z,17.30
2019-06-15T21:13:26.356Z,17.20
2019-06-15T21:19:35.957Z,17.00
2019-06-15T21:25:40.065Z,17.00
2019-06-15T21:31:46.407Z,17.00
2019-06-15T21:37:51.057Z,16.70
2019-06-15T21:43:56.538Z,16.40
2019-06-15T21:50:01.263Z,16.40
2019-06-15T21:56:07.175Z,16.30
2019-06-15T22:02:12.092Z,16.40
2019-06-15T22:08:17.125Z,16.40
2019-06-15T22:14:21.798Z,16.50
2019-06-15T22:20:26.435Z,16.40
2019-06-15T22:26:30.989Z,16.40
2019-06-15T22:32:35.546Z,16.30
2019-06-15T22:38:40.099Z,16.40
2019-06-15T22:44:46.434Z,16.30
2019-06-15T22:50:51.159Z,16.10
2019-06-15T22:56:56.640Z,16.10
2019-06-15T23:03:01.367Z,16.00
2019-06-15T23:09:07.549Z,15.90
2019-06-15T23:15:13.492Z,15.60
2019-06-15T23:21:18.050Z,15.40
2019-06-15T23:27:22.621Z,15.20
2019-06-15T23:33:27.153Z,15.10
2019-06-15T23:39:31.709Z,15.00
2019-06-15T23:45:36.307Z,14.90
2019-06-15T23:51:40.867Z,14.90
2019-06-15T23:57:46.516Z,14.80
